createdAt,value
2022-10-06T00:00:00.098Z,8
2022-10-06T00:05:00.109Z,5.4
2022-10-06T00:10:00.133Z,5.4
2022-10-06T00:15:00.113Z,5.9
2022-10-06T00:20:00.123Z,5.9
2022-10-06T00:25:00.125Z,4.6
2022-10-06T00:30:00.092Z,4.6
2022-10-06T00:35:00.098Z,4.5
2022-10-06T00:40:00.167Z,4.5
2022-10-06T00:45:00.105Z,5.8
2022-10-06T00:50:00.104Z,5.8
2022-10-06T00:55:00.120Z,5.3
2022-10-06T01:00:00.133Z,5.3
2022-10-06T01:05:00.096Z,4.8
2022-10-06T01:10:00.115Z,4.8
2022-10-06T01:15:00.097Z,6.2
2022-10-06T01:20:00.181Z,6.2
2022-10-06T01:25:00.112Z,7.6
2022-10-06T01:30:00.107Z,7.6
2022-10-06T01:35:00.112Z,6.6
2022-10-06T01:40:00.119Z,6.6
2022-10-06T01:45:00.102Z,6.2
2022-10-06T01:50:00.105Z,6.2
2022-10-06T01:55:00.106Z,8.2
2022-10-06T02:00:00.101Z,8.2
2022-10-06T02:05:00.116Z,7.7
2022-10-06T02:10:00.127Z,7.7
2022-10-06T02:15:00.122Z,6.2
2022-10-06T02:20:00.130Z,6.2
2022-10-06T02:25:00.122Z,6.7
2022-10-06T02:30:00.112Z,6.7
2022-10-06T02:35:00.116Z,6.1
2022-10-06T02:40:00.112Z,6.1
2022-10-06T02:45:00.108Z,5.4
2022-10-06T02:50:00.099Z,5.4
2022-10-06T02:55:00.108Z,8.4
2022-10-06T03:00:00.102Z,8.4
2022-10-06T03:05:00.110Z,6.6
2022-10-06T03:10:00.121Z,6.6
2022-10-06T03:15:00.103Z,6.6
2022-10-06T03:20:00.114Z,6.6
2022-10-06T03:25:00.111Z,7.1
2022-10-06T03:30:00.118Z,7.1
2022-10-06T03:35:00.133Z,6.5
2022-10-06T03:40:00.126Z,6.5
2022-10-06T03:45:00.123Z,7.8
2022-10-06T03:50:00.114Z,7.8
2022-10-06T03:55:00.127Z,5.6
2022-10-06T04:00:00.107Z,5.6
2022-10-06T04:05:00.137Z,10.3
2022-10-06T04:10:00.101Z,10.3
2022-10-06T04:15:00.426Z,8
2022-10-06T04:20:00.099Z,8
2022-10-06T04:25:00.117Z,10
2022-10-06T04:30:00.097Z,10
2022-10-06T04:35:00.111Z,12.2
2022-10-06T04:40:00.117Z,12.2
2022-10-06T04:45:00.113Z,5.8
2022-10-06T04:50:00.116Z,5.8
2022-10-06T04:55:00.116Z,4.9
2022-10-06T05:00:05.406Z,4.9
2022-10-06T05:05:00.123Z,6
2022-10-06T05:10:00.135Z,6
2022-10-06T05:15:00.129Z,5.4
2022-10-06T05:20:00.112Z,5.4
2022-10-06T05:25:00.110Z,5.3
2022-10-06T05:30:00.111Z,5.3
2022-10-06T05:35:00.107Z,5.2
2022-10-06T05:40:00.123Z,5.2
2022-10-06T05:45:00.112Z,4.2
2022-10-06T05:50:00.112Z,4.2
2022-10-06T05:55:00.117Z,3.8
2022-10-06T06:00:00.119Z,3.8
2022-10-06T06:05:00.123Z,4.4
2022-10-06T06:10:00.133Z,4.4
2022-10-06T06:15:00.110Z,4.5
2022-10-06T06:20:00.109Z,4.5
2022-10-06T06:25:00.141Z,5.2
2022-10-06T06:30:00.150Z,5.2
2022-10-06T06:35:00.121Z,4.5
2022-10-06T06:40:00.105Z,4.5
2022-10-06T06:45:00.123Z,2.7
2022-10-06T06:50:00.180Z,2.7
2022-10-06T06:55:00.119Z,3.3
2022-10-06T07:00:00.117Z,3.3
2022-10-06T07:05:00.113Z,3.3
2022-10-06T07:10:00.115Z,3.3
2022-10-06T07:15:00.119Z,5
2022-10-06T07:20:00.112Z,5
2022-10-06T07:25:00.139Z,2.9
2022-10-06T07:30:00.139Z,2.9
2022-10-06T07:35:00.123Z,2.2
2022-10-06T07:40:00.116Z,2.2
2022-10-06T07:45:00.112Z,2.4
2022-10-06T07:50:00.130Z,2.4
2022-10-06T07:55:00.106Z,4.6
2022-10-06T08:00:03.022Z,4.6
2022-10-06T08:05:00.109Z,2.6
2022-10-06T08:10:00.115Z,2.6
2022-10-06T08:15:02.908Z,3.4
2022-10-06T08:20:00.118Z,3.4
2022-10-06T08:25:07.458Z,3.3
2022-10-06T08:30:00.106Z,3.3
2022-10-06T08:35:00.111Z,4.8
2022-10-06T08:40:00.113Z,4.8
2022-10-06T08:45:00.123Z,4.5
2022-10-06T08:50:00.119Z,4.5
2022-10-06T08:55:00.114Z,4.2
2022-10-06T09:00:00.108Z,4.2
2022-10-06T09:05:00.125Z,2.9
2022-10-06T09:10:00.126Z,2.9
2022-10-06T09:15:00.151Z,2.9
2022-10-06T09:20:00.113Z,2.9
2022-10-06T09:25:00.112Z,4
2022-10-06T09:30:00.116Z,4
2022-10-06T09:35:00.155Z,4.1
2022-10-06T09:40:00.122Z,4.1
2022-10-06T09:45:00.112Z,6.3
2022-10-06T09:50:00.106Z,6.3
2022-10-06T09:55:00.123Z,4.8
2022-10-06T10:00:00.346Z,4.8
2022-10-06T10:05:00.112Z,3.8
2022-10-06T10:10:00.132Z,3.8
2022-10-06T10:15:00.120Z,5.9
2022-10-06T10:20:00.466Z,5.9
2022-10-06T10:25:00.121Z,6.3
2022-10-06T10:30:00.216Z,6.3
2022-10-06T10:35:00.379Z,4.8
2022-10-06T10:40:00.108Z,4.8
2022-10-06T10:45:00.370Z,6.1
2022-10-06T10:50:00.123Z,6.1
2022-10-06T10:55:00.394Z,3.5
2022-10-06T11:00:00.103Z,3.5
2022-10-06T11:05:00.607Z,5.5
2022-10-06T11:10:00.158Z,5.5
2022-10-06T11:15:00.580Z,3.8
2022-10-06T11:20:00.143Z,3.8
2022-10-06T11:25:00.419Z,4.6
2022-10-06T11:30:00.518Z,4.6
2022-10-06T11:35:00.116Z,5.4
2022-10-06T11:40:00.551Z,5.4
2022-10-06T11:45:00.630Z,8.5
2022-10-06T11:50:00.132Z,8.5
2022-10-06T11:55:00.581Z,3.4
2022-10-06T12:00:00.097Z,3.4
2022-10-06T12:05:00.537Z,4
2022-10-06T12:10:00.106Z,4
2022-10-06T12:20:00.138Z,4.7
2022-10-06T12:25:00.498Z,6.7
2022-10-06T12:30:00.576Z,6.7
2022-10-06T12:35:00.375Z,4.4
2022-10-06T12:40:00.123Z,4.4
2022-10-06T12:45:00.479Z,2.3
2022-10-06T12:50:00.105Z,2.3
2022-10-06T12:55:00.557Z,3.1
2022-10-06T13:00:00.104Z,3.1
2022-10-06T13:05:00.533Z,6.5
2022-10-06T13:10:00.193Z,6.5
2022-10-06T13:15:00.403Z,5.2
2022-10-06T13:20:00.456Z,5.2
2022-10-06T13:25:00.129Z,3.7
2022-10-06T13:30:00.562Z,3.7
2022-10-06T13:35:00.575Z,4.1
2022-10-06T13:40:00.562Z,4.1
2022-10-06T13:45:00.116Z,4.1
2022-10-06T13:50:00.294Z,4.1
2022-10-06T13:55:00.397Z,5
2022-10-06T14:00:00.481Z,5
2022-10-06T14:05:00.550Z,4
2022-10-06T14:10:00.113Z,4
2022-10-06T14:15:00.583Z,4.7
2022-10-06T14:20:00.540Z,4.7
2022-10-06T14:25:00.192Z,4.7
2022-10-06T14:30:00.501Z,4.7
2022-10-06T14:35:00.130Z,4.2
2022-10-06T14:40:00.633Z,4.2
2022-10-06T14:45:00.402Z,4.4
2022-10-06T14:50:00.268Z,4.4
2022-10-06T14:55:00.480Z,5.1
2022-10-06T15:00:00.577Z,5.1
2022-10-06T15:05:00.115Z,6
2022-10-06T15:10:00.139Z,6
2022-10-06T15:15:00.117Z,4.3
2022-10-06T15:20:00.121Z,4.3
2022-10-06T15:25:00.114Z,6.4
2022-10-06T15:30:00.093Z,6.4
2022-10-06T15:35:00.097Z,4.8
2022-10-06T15:40:00.130Z,4.8
2022-10-06T15:45:02.771Z,4.3
2022-10-06T15:50:00.177Z,4.3
2022-10-06T15:55:00.122Z,4.8
2022-10-06T16:00:00.090Z,4.8
2022-10-06T16:05:00.106Z,7.4
2022-10-06T16:10:00.108Z,7.4
2022-10-06T16:15:00.109Z,6.1
2022-10-06T16:20:00.134Z,6.1
2022-10-06T16:25:00.122Z,10.4
2022-10-06T16:30:00.125Z,10.4
2022-10-06T16:35:00.113Z,4.9
2022-10-06T16:40:00.147Z,4.9
2022-10-06T16:45:00.108Z,4.9
2022-10-06T16:50:00.117Z,4.9
2022-10-06T16:55:00.115Z,6.8
2022-10-06T17:00:00.099Z,6.8
2022-10-06T17:05:00.126Z,5.3
2022-10-06T17:10:18.789Z,5.3
2022-10-06T17:15:00.140Z,6.6
2022-10-06T17:20:00.120Z,6.6
2022-10-06T17:25:00.142Z,4.4
2022-10-06T17:30:00.113Z,4.4
2022-10-06T17:35:00.118Z,4.9
2022-10-06T17:40:00.127Z,4.9
2022-10-06T17:45:00.103Z,5.5
2022-10-06T17:50:00.117Z,5.5
2022-10-06T17:55:00.132Z,7.6
2022-10-06T18:00:00.102Z,7.6
2022-10-06T18:05:00.107Z,10
2022-10-06T18:10:00.157Z,10
2022-10-06T18:15:00.113Z,7.7
2022-10-06T18:20:00.112Z,7.7
2022-10-06T18:25:00.109Z,7.5
2022-10-06T18:30:00.105Z,7.5
2022-10-06T18:36:09.644Z,4.8
2022-10-06T18:40:00.105Z,4.8
2022-10-06T18:45:00.111Z,4.8
2022-10-06T18:50:00.114Z,4.8
2022-10-06T18:55:00.111Z,7
2022-10-06T19:00:00.121Z,7
2022-10-06T19:05:00.118Z,6.1
2022-10-06T19:10:00.111Z,6.1
2022-10-06T19:15:00.099Z,9.9
2022-10-06T19:20:00.119Z,9.9
2022-10-06T19:25:00.133Z,6.2
2022-10-06T19:30:00.128Z,6.2
2022-10-06T19:35:00.119Z,5.9
2022-10-06T19:40:00.120Z,5.9
2022-10-06T19:45:00.109Z,6.3
2022-10-06T19:50:03.856Z,6.3
2022-10-06T19:55:00.133Z,8.3
2022-10-06T20:00:00.118Z,8.3
2022-10-06T20:05:00.117Z,10.4
2022-10-06T20:10:00.129Z,10.4
2022-10-06T20:15:00.110Z,7.3
2022-10-06T20:20:00.129Z,7.3
2022-10-06T20:25:00.119Z,9.6
2022-10-06T20:30:00.103Z,9.6
2022-10-06T20:35:00.119Z,4.9
2022-10-06T20:40:00.125Z,4.9
2022-10-06T20:45:00.109Z,5.2
2022-10-06T20:50:00.116Z,5.2
2022-10-06T20:55:00.114Z,7
2022-10-06T21:00:00.130Z,7
2022-10-06T21:05:00.158Z,7.3
2022-10-06T21:10:00.375Z,7.3
2022-10-06T21:15:00.157Z,4
2022-10-06T21:20:00.149Z,4
2022-10-06T21:25:00.167Z,6.2
2022-10-06T21:30:00.168Z,6.2
2022-10-06T21:35:00.167Z,9.1
2022-10-06T21:40:02.417Z,9.1
2022-10-06T21:45:00.167Z,6.1
2022-10-06T21:50:00.167Z,6.1
2022-10-06T21:55:00.179Z,6.2
2022-10-06T22:00:00.166Z,6.2
2022-10-06T22:05:00.178Z,7.7
2022-10-06T22:10:00.167Z,7.7
2022-10-06T22:15:00.157Z,8.9
2022-10-06T22:20:00.153Z,8.9
2022-10-06T22:25:00.202Z,5.9
2022-10-06T22:30:00.144Z,5.9
2022-10-06T22:35:00.161Z,5.8
2022-10-06T22:40:03.003Z,5.8
2022-10-06T22:45:00.162Z,9.3
2022-10-06T22:50:00.168Z,9.3
2022-10-06T22:55:00.162Z,13.6
2022-10-06T23:00:00.148Z,13.6
2022-10-06T23:05:00.157Z,8.7
2022-10-06T23:10:00.162Z,8.7
2022-10-06T23:15:00.154Z,11.8
2022-10-06T23:20:00.159Z,11.8
2022-10-06T23:25:00.173Z,5.6
2022-10-06T23:30:00.166Z,5.6
2022-10-06T23:35:00.166Z,6
2022-10-06T23:40:00.154Z,6
2022-10-06T23:45:00.140Z,4.6
2022-10-06T23:50:00.140Z,4.6
2022-10-06T23:55:00.158Z,9.8
